メインページ
METAR-TAF:

METAR-TAF

空港 :

Havre City-County Airport

Havre, モンタナ州, アメリカ合衆国

緯度: 48-32-34N, 経度: 109-45-48W, 海抜: 789m

現時点の気象観測

当レポートは30分前の05:53(UTC)に作成
西の風 7kt
気温 -13°C
湿度 85%
気圧 1009 hPa
視程: 16.1km
高度8500ftの千切れ雲あり

METAR: KHVR 150553Z AUTO 26007KT 10SM BKN085 M13/M15 A2980 RMK AO2 SLP141 I6000 T11281150 11111 21156 55003

時間: 23:23 (06:23 UTC)

予報

当レポートは1時間3分前の05:20(UTC)に作成
予報は15日の 06時(UTC)から 16日の 06時(UTC)まで有効
南西の風 7kt
視程: 10km
高度8000ftの千切れ雲あり
15日の 1400時(UTC)から
変向風 6kt
視程: 10km
高度3000ftの雲は散在している
高度5000ftの千切れ雲あり
16日の 0100時(UTC)から
変向風 6kt
視程: 10km
高度5000ftの雲は散在している

TAF: KHVR 150520Z 1506/1606 23007KT P6SM BKN080 FM151400 VRB06KT P6SM SCT030 BKN050 FM160100 VRB06KT P6SM SCT050

4,000以上の空港の気象観測と天気予報(METAR報とTAF報)

利用可能な観測所は地図上に黄色い丸と赤い丸で示す。

丸の上にカーソルを重ねると観測所名を参照できる。

次にクリックすると気象観測と天気予報を参照できる。

マップの切り替え:黒色「×」印の緑ボタンをクリックして拡大、「-」印の緑ボタンをクリックして縮小、緑色の三角印をクリックして隣りの地図に切り替え


METAR-TAF: